Hall, Kentucky
Current Conditions -  °F | °C
As of 4:55 PM on Tuesday 25 Nov 2014 (Local Time) from KLNP Reporting Station
Clear Clear  
Wind Chill: 50°   Ceiling: Unl
Heat Index: 50°   Visibility: 10mi
Dew Point: 19°   Wind: 3mph
Humidity: 30%   Direction: 320°NW
Pressure: 30.05"   Gusts: NA
Location:  37.216°N, 82.7112°W
Report Text: KLNP 252155Z AUTO 32003KT 10SM CLR 10/M07 A3005 RMK AO2
Loading
Personal Weather Stations






























Interactive Weather Map New forecast layout! Learn more

10-Day Weather Forecast

Advertisements
Track Severe Weather on mobile